sensor_id;sensor_type;location;lat;lon;timestamp;pressure;altitude;pressure_sealevel;temperature;humidity
21988;BME280;11158;53.404;-1.510;2023-04-30T00:01:37;101051.44;;;16.83;54.12
21988;BME280;11158;53.404;-1.510;2023-04-30T00:04:21;101053.91;;;16.78;54.29
21988;BME280;11158;53.404;-1.510;2023-04-30T00:07:05;101044.38;;;16.69;54.30
21988;BME280;11158;53.404;-1.510;2023-04-30T00:09:49;101040.84;;;16.62;54.37
21988;BME280;11158;53.404;-1.510;2023-04-30T00:12:34;101045.41;;;16.68;54.21
21988;BME280;11158;53.404;-1.510;2023-04-30T00:15:18;101044.56;;;16.74;53.78
21988;BME280;11158;53.404;-1.510;2023-04-30T00:18:02;101041.28;;;16.45;54.70
21988;BME280;11158;53.404;-1.510;2023-04-30T00:20:47;101042.94;;;16.26;55.81
21988;BME280;11158;53.404;-1.510;2023-04-30T00:23:31;101042.06;;;16.26;55.78
21988;BME280;11158;53.404;-1.510;2023-04-30T00:26:15;101045.00;;;16.31;55.34
21988;BME280;11158;53.404;-1.510;2023-04-30T00:28:59;101041.69;;;16.29;55.17
21988;BME280;11158;53.404;-1.510;2023-04-30T00:31:43;101042.50;;;16.63;54.47
21988;BME280;11158;53.404;-1.510;2023-04-30T00:34:27;101032.13;;;16.46;54.72
21988;BME280;11158;53.404;-1.510;2023-04-30T00:37:12;101033.47;;;15.76;57.42
21988;BME280;11158;53.404;-1.510;2023-04-30T00:39:56;101038.69;;;15.84;57.34
21988;BME280;11158;53.404;-1.510;2023-04-30T00:42:40;101033.09;;;15.99;56.65
21988;BME280;11158;53.404;-1.510;2023-04-30T00:45:24;101031.25;;;16.12;56.11
21988;BME280;11158;53.404;-1.510;2023-04-30T00:48:08;101032.94;;;16.53;54.80
21988;BME280;11158;53.404;-1.510;2023-04-30T00:50:53;101027.56;;;16.53;54.64
21988;BME280;11158;53.404;-1.510;2023-04-30T00:53:39;101023.00;;;16.41;55.28
21988;BME280;11158;53.404;-1.510;2023-04-30T00:56:23;101019.44;;;16.47;54.86
21988;BME280;11158;53.404;-1.510;2023-04-30T00:59:08;101014.72;;;16.29;55.66
21988;BME280;11158;53.404;-1.510;2023-04-30T01:01:53;101017.59;;;16.34;55.57
21988;BME280;11158;53.404;-1.510;2023-04-30T01:04:38;101012.63;;;16.31;55.47
21988;BME280;11158;53.404;-1.510;2023-04-30T01:07:24;101014.94;;;15.59;57.68
21988;BME280;11158;53.404;-1.510;2023-04-30T01:10:12;101020.31;;;15.53;58.01
21988;BME280;11158;53.404;-1.510;2023-04-30T01:13:26;101014.94;;;15.59;57.55
21988;BME280;11158;53.404;-1.510;2023-04-30T01:16:25;101014.16;;;15.65;57.29
21988;BME280;11158;53.404;-1.510;2023-04-30T01:19:32;101014.41;;;15.29;58.60
21988;BME280;11158;53.404;-1.510;2023-04-30T01:22:29;101018.13;;;14.86;60.01
21988;BME280;11158;53.404;-1.510;2023-04-30T01:28:17;101012.59;;;14.95;58.73
21988;BME280;11158;53.404;-1.510;2023-04-30T01:31:17;101009.69;;;14.61;61.16
21988;BME280;11158;53.404;-1.510;2023-04-30T01:34:02;101008.22;;;14.87;59.94
21988;BME280;11158;53.404;-1.510;2023-04-30T01:37:23;100997.31;;;15.02;58.83
21988;BME280;11158;53.404;-1.510;2023-04-30T01:46:21;100996.75;;;15.13;58.58
21988;BME280;11158;53.404;-1.510;2023-04-30T01:52:19;100989.75;;;15.80;55.82
21988;BME280;11158;53.404;-1.510;2023-04-30T01:55:07;100993.13;;;16.29;54.39
21988;BME280;11158;53.404;-1.510;2023-04-30T01:57:56;100995.16;;;16.53;53.79
21988;BME280;11158;53.404;-1.510;2023-04-30T02:00:41;100996.66;;;16.29;54.43
21988;BME280;11158;53.404;-1.510;2023-04-30T02:03:25;100989.75;;;16.60;53.71
21988;BME280;11158;53.404;-1.510;2023-04-30T02:06:10;100985.16;;;16.94;53.02
21988;BME280;11158;53.404;-1.510;2023-04-30T02:08:55;100982.25;;;16.95;52.41
21988;BME280;11158;53.404;-1.510;2023-04-30T02:11:42;100982.91;;;16.58;53.52
21988;BME280;11158;53.404;-1.510;2023-04-30T02:14:27;100979.81;;;16.61;53.56
21988;BME280;11158;53.404;-1.510;2023-04-30T02:17:11;100977.75;;;16.43;53.25
21988;BME280;11158;53.404;-1.510;2023-04-30T02:19:57;100985.56;;;15.71;55.62
21988;BME280;11158;53.404;-1.510;2023-04-30T02:22:41;100983.13;;;15.76;55.66
21988;BME280;11158;53.404;-1.510;2023-04-30T02:25:25;100981.66;;;15.87;55.12
21988;BME280;11158;53.404;-1.510;2023-04-30T02:28:09;100975.81;;;15.70;55.86
21988;BME280;11158;53.404;-1.510;2023-04-30T02:30:53;100977.34;;;15.93;55.29
21988;BME280;11158;53.404;-1.510;2023-04-30T02:33:38;100971.75;;;16.21;54.59
21988;BME280;11158;53.404;-1.510;2023-04-30T02:36:22;100972.38;;;16.23;54.37
21988;BME280;11158;53.404;-1.510;2023-04-30T02:39:06;100968.81;;;15.96;55.19
21988;BME280;11158;53.404;-1.510;2023-04-30T02:41:51;100961.56;;;16.09;54.59
21988;BME280;11158;53.404;-1.510;2023-04-30T02:44:35;100963.66;;;16.41;54.01
21988;BME280;11158;53.404;-1.510;2023-04-30T02:47:19;100969.44;;;16.44;53.82
21988;BME280;11158;53.404;-1.510;2023-04-30T02:50:04;100966.09;;;16.55;53.40
21988;BME280;11158;53.404;-1.510;2023-04-30T02:52:48;100960.72;;;16.49;53.40
21988;BME280;11158;53.404;-1.510;2023-04-30T02:55:32;100957.38;;;16.60;53.65
21988;BME280;11158;53.404;-1.510;2023-04-30T02:58:16;100959.25;;;16.60;53.58
21988;BME280;11158;53.404;-1.510;2023-04-30T03:01:00;100947.63;;;16.79;53.15
21988;BME280;11158;53.404;-1.510;2023-04-30T03:03:44;100945.06;;;16.98;52.81
21988;BME280;11158;53.404;-1.510;2023-04-30T03:06:29;100948.94;;;17.15;52.17
21988;BME280;11158;53.404;-1.510;2023-04-30T03:09:14;100950.97;;;17.26;52.16
21988;BME280;11158;53.404;-1.510;2023-04-30T03:11:58;100956.41;;;17.20;52.50
21988;BME280;11158;53.404;-1.510;2023-04-30T03:14:42;100949.47;;;16.72;53.40
21988;BME280;11158;53.404;-1.510;2023-04-30T03:17:26;100952.59;;;16.82;53.75
21988;BME280;11158;53.404;-1.510;2023-04-30T03:20:11;100950.88;;;16.94;53.17
21988;BME280;11158;53.404;-1.510;2023-04-30T03:22:55;100952.09;;;17.05;53.20
21988;BME280;11158;53.404;-1.510;2023-04-30T03:25:39;100947.25;;;17.27;52.52
21988;BME280;11158;53.404;-1.510;2023-04-30T03:28:24;100955.47;;;17.46;51.94
21988;BME280;11158;53.404;-1.510;2023-04-30T03:31:08;100951.97;;;17.38;51.96
21988;BME280;11158;53.404;-1.510;2023-04-30T03:33:52;100944.66;;;17.46;51.90
21988;BME280;11158;53.404;-1.510;2023-04-30T03:36:36;100942.28;;;17.56;51.42
21988;BME280;11158;53.404;-1.510;2023-04-30T03:39:21;100941.59;;;17.67;51.24
21988;BME280;11158;53.404;-1.510;2023-04-30T03:42:05;100942.28;;;17.56;51.64
21988;BME280;11158;53.404;-1.510;2023-04-30T03:44:50;100941.63;;;17.61;51.53
21988;BME280;11158;53.404;-1.510;2023-04-30T03:47:34;100938.47;;;17.38;51.69
21988;BME280;11158;53.404;-1.510;2023-04-30T03:50:19;100925.63;;;17.27;52.23
21988;BME280;11158;53.404;-1.510;2023-04-30T03:53:03;100938.75;;;17.17;52.72
21988;BME280;11158;53.404;-1.510;2023-04-30T03:55:48;100932.88;;;17.27;52.65
21988;BME280;11158;53.404;-1.510;2023-04-30T03:58:33;100936.13;;;17.42;52.18
21988;BME280;11158;53.404;-1.510;2023-04-30T04:01:17;100936.09;;;17.49;51.83
21988;BME280;11158;53.404;-1.510;2023-04-30T04:04:01;100942.97;;;17.45;51.94
21988;BME280;11158;53.404;-1.510;2023-04-30T04:06:45;100940.81;;;17.60;51.97
21988;BME280;11158;53.404;-1.510;2023-04-30T04:09:29;100943.25;;;17.68;51.36
21988;BME280;11158;53.404;-1.510;2023-04-30T04:12:13;100936.97;;;17.74;51.05
21988;BME280;11158;53.404;-1.510;2023-04-30T04:14:57;100940.81;;;17.22;52.42
21988;BME280;11158;53.404;-1.510;2023-04-30T04:17:41;100939.84;;;17.03;52.94
21988;BME280;11158;53.404;-1.510;2023-04-30T04:20:25;100941.78;;;16.75;53.73
21988;BME280;11158;53.404;-1.510;2023-04-30T04:23:10;100940.81;;;16.30;54.91
21988;BME280;11158;53.404;-1.510;2023-04-30T04:25:54;100948.50;;;15.86;56.67
21988;BME280;11158;53.404;-1.510;2023-04-30T04:28:40;100943.75;;;16.15;56.14
21988;BME280;11158;53.404;-1.510;2023-04-30T04:31:24;100941.59;;;16.64;54.62
21988;BME280;11158;53.404;-1.510;2023-04-30T04:34:09;100936.44;;;17.27;52.81
21988;BME280;11158;53.404;-1.510;2023-04-30T04:36:54;100931.31;;;17.51;52.39
21988;BME280;11158;53.404;-1.510;2023-04-30T04:39:38;100933.03;;;17.70;51.82
21988;BME280;11158;53.404;-1.510;2023-04-30T04:42:38;100930.16;;;17.65;51.91
21988;BME280;11158;53.404;-1.510;2023-04-30T04:45:22;100937.50;;;17.58;51.93
21988;BME280;11158;53.404;-1.510;2023-04-30T04:48:06;100927.66;;;17.64;52.30
21988;BME280;11158;53.404;-1.510;2023-04-30T04:50:50;100919.19;;;17.60;51.95
21988;BME280;11158;53.404;-1.510;2023-04-30T04:53:34;100924.72;;;17.72;51.85
21988;BME280;11158;53.404;-1.510;2023-04-30T04:56:19;100932.38;;;17.82;51.70
21988;BME280;11158;53.404;-1.510;2023-04-30T04:59:04;100928.84;;;17.74;51.47
21988;BME280;11158;53.404;-1.510;2023-04-30T05:01:48;100927.59;;;17.45;52.38
21988;BME280;11158;53.404;-1.510;2023-04-30T05:04:32;100928.84;;;17.43;52.41
21988;BME280;11158;53.404;-1.510;2023-04-30T05:07:16;100925.97;;;17.37;52.87
21988;BME280;11158;53.404;-1.510;2023-04-30T05:10:01;100926.72;;;17.13;53.46
21988;BME280;11158;53.404;-1.510;2023-04-30T05:12:45;100923.78;;;17.21;53.09
21988;BME280;11158;53.404;-1.510;2023-04-30T05:15:29;100915.22;;;17.24;53.25
21988;BME280;11158;53.404;-1.510;2023-04-30T05:18:14;100910.63;;;17.31;53.14
21988;BME280;11158;53.404;-1.510;2023-04-30T05:20:58;100910.91;;;17.55;52.42
21988;BME280;11158;53.404;-1.510;2023-04-30T05:23:43;100913.47;;;17.75;52.22
21988;BME280;11158;53.404;-1.510;2023-04-30T05:26:27;100913.44;;;17.82;52.05
21988;BME280;11158;53.404;-1.510;2023-04-30T05:29:11;100908.81;;;17.89;52.11
21988;BME280;11158;53.404;-1.510;2023-04-30T05:31:55;100907.13;;;17.94;51.92
21988;BME280;11158;53.404;-1.510;2023-04-30T05:34:40;100910.38;;;18.03;51.58
21988;BME280;11158;53.404;-1.510;2023-04-30T05:37:24;100906.41;;;18.06;51.84
21988;BME280;11158;53.404;-1.510;2023-04-30T05:40:08;100901.16;;;17.86;52.30
21988;BME280;11158;53.404;-1.510;2023-04-30T05:42:54;100902.84;;;17.80;52.14
21988;BME280;11158;53.404;-1.510;2023-04-30T05:45:39;100904.25;;;17.89;51.91
21988;BME280;11158;53.404;-1.510;2023-04-30T05:48:23;100893.75;;;17.68;52.77
21988;BME280;11158;53.404;-1.510;2023-04-30T05:51:07;100898.44;;;17.86;52.49
21988;BME280;11158;53.404;-1.510;2023-04-30T05:53:53;100903.63;;;18.12;52.01
21988;BME280;11158;53.404;-1.510;2023-04-30T05:56:37;100894.75;;;18.05;51.76
21988;BME280;11158;53.404;-1.510;2023-04-30T05:59:21;100899.13;;;18.25;51.54
21988;BME280;11158;53.404;-1.510;2023-04-30T06:02:05;100903.16;;;18.40;51.53
21988;BME280;11158;53.404;-1.510;2023-04-30T06:04:50;100908.00;;;18.32;51.61
21988;BME280;11158;53.404;-1.510;2023-04-30T06:07:34;100913.38;;;18.38;51.71
21988;BME280;11158;53.404;-1.510;2023-04-30T06:10:18;100918.84;;;18.32;52.38
21988;BME280;11158;53.404;-1.510;2023-04-30T06:13:02;100922.91;;;17.59;54.04
21988;BME280;11158;53.404;-1.510;2023-04-30T06:15:47;100920.03;;;17.22;55.06
21988;BME280;11158;53.404;-1.510;2023-04-30T06:18:31;100918.94;;;16.78;57.40
21988;BME280;11158;53.404;-1.510;2023-04-30T06:21:15;100923.38;;;17.56;55.15
21988;BME280;11158;53.404;-1.510;2023-04-30T06:24:00;100914.38;;;17.30;55.78
21988;BME280;11158;53.404;-1.510;2023-04-30T06:26:43;100915.78;;;17.40;55.56
21988;BME280;11158;53.404;-1.510;2023-04-30T06:29:28;100918.56;;;17.58;54.86
21988;BME280;11158;53.404;-1.510;2023-04-30T06:32:12;100923.63;;;17.79;54.72
21988;BME280;11158;53.404;-1.510;2023-04-30T06:34:56;100922.56;;;18.12;53.64
21988;BME280;11158;53.404;-1.510;2023-04-30T06:37:40;100920.81;;;18.43;52.41
21988;BME280;11158;53.404;-1.510;2023-04-30T06:40:24;100913.88;;;18.91;51.72
21988;BME280;11158;53.404;-1.510;2023-04-30T06:43:08;100908.34;;;20.70;47.33
21988;BME280;11158;53.404;-1.510;2023-04-30T06:45:53;100907.63;;;22.07;44.56
21988;BME280;11158;53.404;-1.510;2023-04-30T06:48:37;100893.63;;;23.74;40.31
21988;BME280;11158;53.404;-1.510;2023-04-30T06:51:21;100897.75;;;23.50;40.55
21988;BME280;11158;53.404;-1.510;2023-04-30T06:54:04;100887.00;;;25.03;37.04
21988;BME280;11158;53.404;-1.510;2023-04-30T06:56:48;100883.25;;;27.07;33.65
21988;BME280;11158;53.404;-1.510;2023-04-30T06:59:33;100881.22;;;27.33;32.11
21988;BME280;11158;53.404;-1.510;2023-04-30T07:02:17;100879.59;;;28.54;30.24
21988;BME280;11158;53.404;-1.510;2023-04-30T07:05:01;100873.84;;;29.51;28.68
21988;BME280;11158;53.404;-1.510;2023-04-30T07:07:46;100870.50;;;30.88;26.49
21988;BME280;11158;53.404;-1.510;2023-04-30T07:10:30;100878.66;;;29.02;28.00
21988;BME280;11158;53.404;-1.510;2023-04-30T07:13:14;100880.75;;;27.55;29.38
21988;BME280;11158;53.404;-1.510;2023-04-30T07:15:59;100875.59;;;25.21;32.74
21988;BME280;11158;53.404;-1.510;2023-04-30T07:18:43;100879.72;;;25.44;33.28
21988;BME280;11158;53.404;-1.510;2023-04-30T07:21:27;100885.16;;;24.51;34.46
21988;BME280;11158;53.404;-1.510;2023-04-30T07:24:11;100884.72;;;24.27;35.04
21988;BME280;11158;53.404;-1.510;2023-04-30T07:26:55;100882.56;;;24.29;35.30
21988;BME280;11158;53.404;-1.510;2023-04-30T07:29:40;100887.41;;;23.25;37.53
21988;BME280;11158;53.404;-1.510;2023-04-30T07:32:24;100885.66;;;22.47;39.45
21988;BME280;11158;53.404;-1.510;2023-04-30T07:35:10;100885.59;;;21.58;40.60
21988;BME280;11158;53.404;-1.510;2023-04-30T07:37:55;100888.66;;;20.63;42.33
21988;BME280;11158;53.404;-1.510;2023-04-30T07:40:39;100893.72;;;20.36;43.20
21988;BME280;11158;53.404;-1.510;2023-04-30T07:43:23;100894.53;;;19.36;44.78
21988;BME280;11158;53.404;-1.510;2023-04-30T07:46:08;100890.31;;;19.94;43.97
21988;BME280;11158;53.404;-1.510;2023-04-30T07:48:52;100899.63;;;20.45;42.64
21988;BME280;11158;53.404;-1.510;2023-04-30T07:51:36;100893.56;;;19.72;43.09
21988;BME280;11158;53.404;-1.510;2023-04-30T07:54:21;100893.97;;;19.45;43.65
21988;BME280;11158;53.404;-1.510;2023-04-30T07:57:05;100888.19;;;19.96;42.85
21988;BME280;11158;53.404;-1.510;2023-04-30T07:59:50;100895.25;;;19.97;42.45
21988;BME280;11158;53.404;-1.510;2023-04-30T08:02:34;100893.88;;;19.52;43.86
21988;BME280;11158;53.404;-1.510;2023-04-30T08:05:20;100898.19;;;19.72;43.30
21988;BME280;11158;53.404;-1.510;2023-04-30T08:08:04;100901.44;;;19.62;43.56
21988;BME280;11158;53.404;-1.510;2023-04-30T08:10:48;100890.56;;;20.27;42.06
21988;BME280;11158;53.404;-1.510;2023-04-30T08:13:32;100892.66;;;20.49;41.66
21988;BME280;11158;53.404;-1.510;2023-04-30T08:16:16;100893.25;;;20.16;42.20
21988;BME280;11158;53.404;-1.510;2023-04-30T08:19:01;100891.72;;;20.67;41.63
21988;BME280;11158;53.404;-1.510;2023-04-30T08:21:45;100891.44;;;20.92;41.37
21988;BME280;11158;53.404;-1.510;2023-04-30T08:24:29;100887.06;;;21.48;40.58
21988;BME280;11158;53.404;-1.510;2023-04-30T08:27:13;100882.19;;;21.50;39.23
21988;BME280;11158;53.404;-1.510;2023-04-30T08:29:57;100880.41;;;21.56;39.34
21988;BME280;11158;53.404;-1.510;2023-04-30T08:32:42;100879.09;;;21.59;39.05
21988;BME280;11158;53.404;-1.510;2023-04-30T08:35:26;100872.75;;;21.24;39.54
21988;BME280;11158;53.404;-1.510;2023-04-30T08:38:12;100883.53;;;20.79;39.41
21988;BME280;11158;53.404;-1.510;2023-04-30T08:41:12;100883.41;;;21.14;39.28
21988;BME280;11158;53.404;-1.510;2023-04-30T08:44:00;100886.66;;;21.28;39.14
21988;BME280;11158;53.404;-1.510;2023-04-30T08:46:44;100881.47;;;20.57;40.08
21988;BME280;11158;53.404;-1.510;2023-04-30T08:49:29;100893.13;;;20.69;40.53
21988;BME280;11158;53.404;-1.510;2023-04-30T08:52:15;100881.81;;;21.30;38.89
21988;BME280;11158;53.404;-1.510;2023-04-30T08:55:00;100883.22;;;21.78;38.06
21988;BME280;11158;53.404;-1.510;2023-04-30T08:57:45;100886.00;;;21.66;38.43
21988;BME280;11158;53.404;-1.510;2023-04-30T09:00:31;100882.31;;;21.72;37.69
21988;BME280;11158;53.404;-1.510;2023-04-30T09:03:15;100892.56;;;20.44;38.95
21988;BME280;11158;53.404;-1.510;2023-04-30T09:05:59;100889.00;;;20.67;39.34
21988;BME280;11158;53.404;-1.510;2023-04-30T09:08:45;100887.69;;;20.69;38.30
21988;BME280;11158;53.404;-1.510;2023-04-30T09:11:30;100896.34;;;20.07;39.27
21988;BME280;11158;53.404;-1.510;2023-04-30T09:14:23;100887.34;;;20.66;37.62
21988;BME280;11158;53.404;-1.510;2023-04-30T09:17:08;100879.66;;;20.75;37.72
21988;BME280;11158;53.404;-1.510;2023-04-30T09:19:52;100890.56;;;21.03;37.78
21988;BME280;11158;53.404;-1.510;2023-04-30T09:22:38;100880.31;;;21.22;37.76
21988;BME280;11158;53.404;-1.510;2023-04-30T09:25:37;100891.13;;;20.06;39.44
21988;BME280;11158;53.404;-1.510;2023-04-30T09:28:22;100887.59;;;20.05;38.81
21988;BME280;11158;53.404;-1.510;2023-04-30T09:31:18;100890.16;;;21.11;37.57
21988;BME280;11158;53.404;-1.510;2023-04-30T09:34:03;100871.19;;;21.28;37.22
21988;BME280;11158;53.404;-1.510;2023-04-30T09:36:53;100874.56;;;21.64;36.31
21988;BME280;11158;53.404;-1.510;2023-04-30T09:39:53;100879.66;;;21.32;37.49
21988;BME280;11158;53.404;-1.510;2023-04-30T09:42:37;100876.28;;;21.87;36.31
21988;BME280;11158;53.404;-1.510;2023-04-30T09:45:22;100880.31;;;21.22;37.05
21988;BME280;11158;53.404;-1.510;2023-04-30T09:48:08;100882.41;;;21.94;35.90
21988;BME280;11158;53.404;-1.510;2023-04-30T09:50:53;100878.78;;;20.86;37.94
21988;BME280;11158;53.404;-1.510;2023-04-30T09:53:37;100885.28;;;20.97;38.42
21988;BME280;11158;53.404;-1.510;2023-04-30T09:56:25;100880.16;;;21.29;37.56
21988;BME280;11158;53.404;-1.510;2023-04-30T09:59:10;100879.91;;;21.59;37.13
21988;BME280;11158;53.404;-1.510;2023-04-30T10:01:57;100873.56;;;21.25;37.37
21988;BME280;11158;53.404;-1.510;2023-04-30T10:04:44;100883.00;;;20.93;38.56
21988;BME280;11158;53.404;-1.510;2023-04-30T10:07:35;100875.78;;;21.28;37.63
21988;BME280;11158;53.404;-1.510;2023-04-30T10:10:23;100883.22;;;21.04;38.25
21988;BME280;11158;53.404;-1.510;2023-04-30T10:13:13;100886.06;;;20.68;39.10
21988;BME280;11158;53.404;-1.510;2023-04-30T10:16:03;100881.09;;;19.71;40.74
21988;BME280;11158;53.404;-1.510;2023-04-30T10:18:51;100883.00;;;20.18;39.44
21988;BME280;11158;53.404;-1.510;2023-04-30T10:21:39;100877.47;;;20.60;39.12
21988;BME280;11158;53.404;-1.510;2023-04-30T10:24:26;100883.69;;;20.01;39.37
21988;BME280;11158;53.404;-1.510;2023-04-30T10:27:10;100879.84;;;20.09;39.60
21988;BME280;11158;53.404;-1.510;2023-04-30T10:29:56;100886.75;;;19.39;41.13
21988;BME280;11158;53.404;-1.510;2023-04-30T10:33:24;100878.06;;;20.15;40.10
21988;BME280;11158;53.404;-1.510;2023-04-30T10:36:13;100871.19;;;20.71;38.56
21988;BME280;11158;53.404;-1.510;2023-04-30T10:39:01;100866.56;;;21.58;37.52
21988;BME280;11158;53.404;-1.510;2023-04-30T10:41:46;100863.13;;;21.79;36.06
21988;BME280;11158;53.404;-1.510;2023-04-30T10:44:33;100869.78;;;21.71;35.45
21988;BME280;11158;53.404;-1.510;2023-04-30T10:47:18;100873.47;;;20.91;36.99
21988;BME280;11158;53.404;-1.510;2023-04-30T10:50:03;100873.72;;;20.89;36.87
21988;BME280;11158;53.404;-1.510;2023-04-30T10:53:00;100866.72;;;21.51;35.95
21988;BME280;11158;53.404;-1.510;2023-04-30T10:55:48;100881.53;;;19.68;39.36
21988;BME280;11158;53.404;-1.510;2023-04-30T10:58:37;100870.25;;;19.95;38.34
21988;BME280;11158;53.404;-1.510;2023-04-30T11:01:22;100875.41;;;19.31;39.43
21988;BME280;11158;53.404;-1.510;2023-04-30T11:04:07;100876.44;;;19.18;40.49
21988;BME280;11158;53.404;-1.510;2023-04-30T11:09:41;100859.03;;;20.62;37.96
21988;BME280;11158;53.404;-1.510;2023-04-30T11:12:27;100857.44;;;21.35;36.93
21988;BME280;11158;53.404;-1.510;2023-04-30T11:15:15;100843.75;;;21.30;36.38
21988;BME280;11158;53.404;-1.510;2023-04-30T11:18:01;100846.53;;;21.18;36.16
21988;BME280;11158;53.404;-1.510;2023-04-30T11:20:49;100845.31;;;20.57;35.96
21988;BME280;11158;53.404;-1.510;2023-04-30T11:23:39;100837.56;;;18.94;38.96
21988;BME280;11158;53.404;-1.510;2023-04-30T11:26:25;100850.91;;;19.79;38.15
21988;BME280;11158;53.404;-1.510;2023-04-30T11:29:09;100836.47;;;20.61;37.06
21988;BME280;11158;53.404;-1.510;2023-04-30T11:31:55;100830.34;;;20.42;36.73
21988;BME280;11158;53.404;-1.510;2023-04-30T11:34:39;100827.47;;;21.01;35.99
21988;BME280;11158;53.404;-1.510;2023-04-30T11:37:37;100826.09;;;21.44;36.04
21988;BME280;11158;53.404;-1.510;2023-04-30T11:40:22;100821.53;;;21.67;35.20
21988;BME280;11158;53.404;-1.510;2023-04-30T11:43:07;100816.19;;;21.89;34.28
21988;BME280;11158;53.404;-1.510;2023-04-30T11:46:02;100821.38;;;21.90;34.28
21988;BME280;11158;53.404;-1.510;2023-04-30T11:48:47;100821.97;;;21.42;34.70
21988;BME280;11158;53.404;-1.510;2023-04-30T11:51:35;100816.44;;;20.39;35.54
21988;BME280;11158;53.404;-1.510;2023-04-30T11:54:19;100826.09;;;19.10;38.63
21988;BME280;11158;53.404;-1.510;2023-04-30T11:57:04;100828.91;;;19.45;38.51
21988;BME280;11158;53.404;-1.510;2023-04-30T11:59:48;100819.16;;;20.39;37.47
21988;BME280;11158;53.404;-1.510;2023-04-30T12:02:32;100818.38;;;19.91;37.80
21988;BME280;11158;53.404;-1.510;2023-04-30T12:05:17;100825.91;;;19.77;38.04
21988;BME280;11158;53.404;-1.510;2023-04-30T12:08:06;100816.19;;;19.58;38.68
21988;BME280;11158;53.404;-1.510;2023-04-30T12:10:52;100815.13;;;20.82;36.61
21988;BME280;11158;53.404;-1.510;2023-04-30T12:13:36;100816.44;;;20.27;37.88
21988;BME280;11158;53.404;-1.510;2023-04-30T12:16:24;100806.94;;;21.22;36.97
21988;BME280;11158;53.404;-1.510;2023-04-30T12:19:08;100810.66;;;21.84;35.71
21988;BME280;11158;53.404;-1.510;2023-04-30T12:21:53;100798.81;;;21.56;35.45
21988;BME280;11158;53.404;-1.510;2023-04-30T12:24:38;100797.25;;;22.16;35.10
21988;BME280;11158;53.404;-1.510;2023-04-30T12:27:22;100793.31;;;22.46;35.28
21988;BME280;11158;53.404;-1.510;2023-04-30T12:30:08;100797.59;;;23.13;34.13
21988;BME280;11158;53.404;-1.510;2023-04-30T12:32:56;100792.25;;;22.74;35.24
21988;BME280;11158;53.404;-1.510;2023-04-30T12:35:42;100791.94;;;22.97;34.77
21988;BME280;11158;53.404;-1.510;2023-04-30T12:38:26;100779.69;;;22.46;35.98
21988;BME280;11158;53.404;-1.510;2023-04-30T12:41:10;100782.13;;;23.18;34.27
21988;BME280;11158;53.404;-1.510;2023-04-30T12:47:06;100771.63;;;22.56;34.99
21988;BME280;11158;53.404;-1.510;2023-04-30T12:49:50;100773.84;;;22.37;35.15
21988;BME280;11158;53.404;-1.510;2023-04-30T12:52:34;100774.03;;;23.34;33.69
21988;BME280;11158;53.404;-1.510;2023-04-30T12:55:21;100768.63;;;22.79;34.63
21988;BME280;11158;53.404;-1.510;2023-04-30T12:58:11;100765.91;;;21.58;35.43
21988;BME280;11158;53.404;-1.510;2023-04-30T13:00:57;100770.31;;;21.59;35.79
21988;BME280;11158;53.404;-1.510;2023-04-30T13:03:42;100766.91;;;21.85;35.65
21988;BME280;11158;53.404;-1.510;2023-04-30T13:06:26;100768.03;;;21.89;36.14
21988;BME280;11158;53.404;-1.510;2023-04-30T13:09:11;100771.84;;;21.38;36.67
21988;BME280;11158;53.404;-1.510;2023-04-30T13:11:56;100765.16;;;22.40;35.89
21988;BME280;11158;53.404;-1.510;2023-04-30T13:14:40;100762.97;;;22.59;35.23
21988;BME280;11158;53.404;-1.510;2023-04-30T13:17:24;100757.91;;;22.46;35.85
21988;BME280;11158;53.404;-1.510;2023-04-30T13:20:09;100764.13;;;23.23;34.98
21988;BME280;11158;53.404;-1.510;2023-04-30T13:22:54;100768.94;;;23.10;34.74
21988;BME280;11158;53.404;-1.510;2023-04-30T13:25:40;100765.28;;;22.99;35.29
21988;BME280;11158;53.404;-1.510;2023-04-30T13:28:25;100763.44;;;22.56;35.35
21988;BME280;11158;53.404;-1.510;2023-04-30T13:31:09;100758.28;;;21.93;36.71
21988;BME280;11158;53.404;-1.510;2023-04-30T13:33:53;100769.66;;;21.51;37.10
21988;BME280;11158;53.404;-1.510;2023-04-30T13:36:37;100763.44;;;21.05;37.89
21988;BME280;11158;53.404;-1.510;2023-04-30T13:39:21;100755.91;;;20.26;39.34
21988;BME280;11158;53.404;-1.510;2023-04-30T13:42:05;100769.28;;;19.93;40.29
21988;BME280;11158;53.404;-1.510;2023-04-30T13:44:50;100771.44;;;20.43;39.85
21988;BME280;11158;53.404;-1.510;2023-04-30T13:47:35;100762.53;;;20.19;40.39
21988;BME280;11158;53.404;-1.510;2023-04-30T13:50:19;100769.84;;;20.30;40.03
21988;BME280;11158;53.404;-1.510;2023-04-30T13:53:03;100774.75;;;20.85;39.21
21988;BME280;11158;53.404;-1.510;2023-04-30T13:55:47;100772.03;;;20.85;39.11
21988;BME280;11158;53.404;-1.510;2023-04-30T13:58:32;100765.75;;;20.04;39.41
21988;BME280;11158;53.404;-1.510;2023-04-30T14:01:15;100769.88;;;19.95;39.69
21988;BME280;11158;53.404;-1.510;2023-04-30T14:03:59;100764.38;;;20.42;38.76
21988;BME280;11158;53.404;-1.510;2023-04-30T14:06:45;100771.09;;;20.80;38.44
21988;BME280;11158;53.404;-1.510;2023-04-30T14:09:30;100757.56;;;20.16;39.94
21988;BME280;11158;53.404;-1.510;2023-04-30T14:12:14;100758.03;;;20.24;40.29
21988;BME280;11158;53.404;-1.510;2023-04-30T14:14:59;100751.91;;;20.69;40.74
21988;BME280;11158;53.404;-1.510;2023-04-30T14:17:43;100740.72;;;20.54;41.49
21988;BME280;11158;53.404;-1.510;2023-04-30T14:20:27;100746.34;;;20.24;42.52
21988;BME280;11158;53.404;-1.510;2023-04-30T14:23:11;100744.06;;;19.57;42.95
21988;BME280;11158;53.404;-1.510;2023-04-30T14:25:55;100747.13;;;20.36;42.53
21988;BME280;11158;53.404;-1.510;2023-04-30T14:28:40;100744.50;;;19.42;43.56
21988;BME280;11158;53.404;-1.510;2023-04-30T14:31:24;100739.34;;;19.87;42.67
21988;BME280;11158;53.404;-1.510;2023-04-30T14:34:08;100749.41;;;19.21;43.72